Hauptseite
METAR-TAF:

METAR-TAF

Flughäfen :

Memmingen, Deutschland

Breite: 47-59-33N, Länge: 10-14-37E, Höhe: 633 m

Beobachtung

Neuester Wetterbericht von vor 32 Minuten, um 01:20 UTC
Windstille
Temperatur -2°C
Luftfeuchtigkeit 100%
Luftdruck 1035 hPa
Sichtweite: 2600 m

METAR: EDJA 050120Z AUTO 00000KT 9999 2600 // BKN037/// BKN140/// M02/M02 Q1035

Zeit: 02:52 (01:52 UTC)

Prognose

Neuester Wetterbericht von vor 8 Stunden und 52 Minuten, um 17:00 UTC
Gültige Prognose vom 04 um 18 UTC bis 05 um 03 UTC
Wind 3 kt aus Nordost
Sichtweite 10 km oder mehr
Leicht bewölkt in der Höhe von 2500 ft
Durchbrochene Bewölkung in der Höhe von 4500 ft
Wahrscheinlichkeit 30% :
Zeitweise
vom 04 um 23 UTC bis 05 um 03 UTC
Sichtweite: 2000 m
feuchter Dunst

TAF: EDJA 041700Z 0418/0503 05003KT 9999 FEW025 BKN045 PROB30 TEMPO 0423/0503 2000 BR

Wetterbeobachtungen und Prognosen von mehr als 4000 Flughäfen (METAR und TAF Bericht).

Die verfügbaren Stationen werden durch gelbe und rote Markierungen auf der Karte dargestellt.

Führen Sie die Maus auf sie, um den Namen der Station zu sehen.

Darauf klicken, um die Beobachtung von Wetterbeobachtungen und Prognosen zu sehen.

Um die Karte zu ändern : klicken Sie auf den grünen Tasten mit einem schwarzen Kreuz Zum Vergrößern, auf den grünen Button mit einem Gedankenstrich zu verkleinern, oder auf die grünen Pfeile für benachbarte Karten.


METAR-TAF: